Terminal Aerodrome Forecast
Issued by NWS

Home | Current Version | Previous Version | Text Only | Print | Product List | Glossary On
Versions: 1 2 3 4 5 6 7 8 9 10 11 12 13 14 15 16 17 18 19 20 21 22 23
000
FTUS45 KGJT 210520
TAFVEL
TAF
KVEL 210520Z 2106/2206 31005KT P6SM FEW150
     FM210800 34007KT P6SM FEW120 BKN250
     FM211400 VRB03KT P6SM VCSH SCT070 BKN120
     FM211800 15005KT P6SM VCSH SCT080 BKN140
     FM220100 31004KT P6SM -SHRA SCT030 OVC050=

USA.gov is the U.S. government's official web portal to all federal, state and local government web resources and services.